QTR12 EGCC-EGLL
Flight info
| Callsign | QTR12 |
|---|---|
| Flight time | N/A |
| Altitude | 19000 |
| Route | SANBA N859 HON |
| Aircraft | B737/M-SDE2E3FGHIRWXY/LB1 |
Departure
| Time | 2026-05-04 18:52 |
|---|---|
| Airport | Manchester Airport (EGCC) |
Arrival
| Time | N/A |
|---|---|
| Airport | London Heathrow Airport (EGLL) |
| Time | Latitude | Longitude | Altitude | Speed | Heading |
|---|---|---|---|---|---|
| 2026-05-04 18:28 | 53.36188 | -2.26534 | 254 ft | 0 kts | 321° |
| 2026-05-04 18:38 | 53.36200 | -2.26551 | 254 ft | 3 kts | 141° |
| 2026-05-04 18:38 | 53.36185 | -2.26530 | 254 ft | 2 kts | 141° |
| 2026-05-04 18:38 | 53.36187 | -2.26534 | 254 ft | 1 kts | 141° |
| 2026-05-04 18:42 | 53.36185 | -2.26530 | 254 ft | 2 kts | 141° |
| 2026-05-04 18:42 | 53.36154 | -2.26510 | 254 ft | 8 kts | 177° |
| 2026-05-04 18:42 | 53.36091 | -2.26579 | 254 ft | 13 kts | 211° |
| 2026-05-04 18:43 | 53.36032 | -2.26586 | 254 ft | 8 kts | 189° |
| 2026-05-04 18:43 | 53.35987 | -2.26640 | 254 ft | 6 kts | 228° |
| 2026-05-04 18:43 | 53.35981 | -2.26652 | 254 ft | 0 kts | 230° |
| 2026-05-04 18:46 | 53.35957 | -2.26694 | 255 ft | 9 kts | 216° |
| 2026-05-04 18:47 | 53.35933 | -2.26708 | 255 ft | 1 kts | 186° |
| 2026-05-04 18:47 | 53.35932 | -2.26708 | 255 ft | 1 kts | 185° |
| 2026-05-04 18:47 | 53.35919 | -2.26708 | 255 ft | 10 kts | 179° |
| 2026-05-04 18:47 | 53.35812 | -2.26681 | 263 ft | 16 kts | 169° |
| 2026-05-04 18:48 | 53.35695 | -2.26648 | 263 ft | 19 kts | 171° |
| 2026-05-04 18:48 | 53.35553 | -2.26679 | 256 ft | 24 kts | 219° |
| 2026-05-04 18:48 | 53.35439 | -2.26900 | 251 ft | 26 kts | 230° |
| 2026-05-04 18:48 | 53.35359 | -2.27064 | 248 ft | 11 kts | 231° |
| 2026-05-04 18:49 | 53.35308 | -2.27170 | 246 ft | 12 kts | 227° |
| 2026-05-04 18:49 | 53.35234 | -2.27224 | 245 ft | 12 kts | 192° |
| 2026-05-04 18:49 | 53.35159 | -2.27251 | 243 ft | 9 kts | 191° |
| 2026-05-04 18:49 | 53.35151 | -2.27253 | 243 ft | 0 kts | 191° |
| 2026-05-04 18:50 | 53.35139 | -2.27257 | 243 ft | 7 kts | 191° |
| 2026-05-04 18:50 | 53.35051 | -2.27287 | 241 ft | 16 kts | 195° |
| 2026-05-04 18:50 | 53.34966 | -2.27411 | 238 ft | 9 kts | 231° |
| 2026-05-04 18:50 | 53.34964 | -2.27415 | 238 ft | 0 kts | 231° |
| 2026-05-04 18:51 | 53.34947 | -2.27451 | 237 ft | 26 kts | 231° |
| 2026-05-04 18:51 | 53.34620 | -2.28125 | 228 ft | 120 kts | 231° |
| 2026-05-04 18:52 | 53.33948 | -2.29483 | 537 ft | 168 kts | 230° |
| 2026-05-04 18:52 | 53.33168 | -2.31075 | 1522 ft | 183 kts | 233° |
| 2026-05-04 18:52 | 53.32329 | -2.32846 | 2151 ft | 204 kts | 238° |
| 2026-05-04 18:52 | 53.31950 | -2.35120 | 2677 ft | 211 kts | 278° |
| 2026-05-04 18:53 | 53.32260 | -2.37568 | 3229 ft | 222 kts | 284° |
| 2026-05-04 18:53 | 53.32572 | -2.40118 | 3908 ft | 231 kts | 273° |
| 2026-05-04 18:53 | 53.32185 | -2.42741 | 4672 ft | 240 kts | 239° |
| 2026-05-04 18:53 | 53.30953 | -2.44638 | 5461 ft | 247 kts | 206° |
| 2026-05-04 18:54 | 53.29267 | -2.45254 | 6264 ft | 251 kts | 184° |
| 2026-05-04 18:54 | 53.27503 | -2.45204 | 7014 ft | 259 kts | 170° |
| 2026-05-04 18:54 | 53.25822 | -2.44024 | 7792 ft | 267 kts | 152° |
| 2026-05-04 18:54 | 53.24172 | -2.42498 | 8571 ft | 275 kts | 152° |
| 2026-05-04 18:55 | 53.22470 | -2.40954 | 9371 ft | 282 kts | 153° |
| 2026-05-04 18:55 | 53.18926 | -2.37798 | 10895 ft | 295 kts | 153° |
| 2026-05-04 18:55 | 53.17093 | -2.36187 | 11656 ft | 301 kts | 154° |
| 2026-05-04 18:56 | 53.15830 | -2.35081 | 12172 ft | 305 kts | 154° |
| 2026-05-04 18:56 | 53.13938 | -2.33426 | 12964 ft | 310 kts | 154° |
| 2026-05-04 18:56 | 53.12016 | -2.31747 | 13760 ft | 314 kts | 154° |
| 2026-05-04 18:56 | 53.10066 | -2.30046 | 14496 ft | 318 kts | 154° |
| 2026-05-04 18:57 | 53.08120 | -2.28349 | 15222 ft | 322 kts | 153° |
| 2026-05-04 18:57 | 53.06129 | -2.26612 | 15974 ft | 325 kts | 153° |
| 2026-05-04 18:57 | 53.04090 | -2.24838 | 16757 ft | 327 kts | 154° |
| 2026-05-04 18:57 | 53.02091 | -2.23100 | 17526 ft | 329 kts | 154° |
| 2026-05-04 18:58 | 53.00057 | -2.21334 | 18337 ft | 331 kts | 154° |
| 2026-05-04 18:58 | 52.97999 | -2.19551 | 18850 ft | 340 kts | 154° |
| 2026-05-04 18:58 | 52.95851 | -2.17693 | 19060 ft | 357 kts | 153° |
| 2026-05-04 18:58 | 52.93590 | -2.15740 | 19063 ft | 376 kts | 153° |
| 2026-05-04 18:59 | 52.91223 | -2.13697 | 19066 ft | 390 kts | 153° |
| 2026-05-04 18:59 | 52.88813 | -2.11615 | 19052 ft | 391 kts | 153° |
| 2026-05-04 18:59 | 52.86392 | -2.09526 | 19041 ft | 392 kts | 153° |
| 2026-05-04 18:59 | 52.83981 | -2.07448 | 19037 ft | 391 kts | 154° |
| 2026-05-04 19:00 | 52.81564 | -2.05368 | 19053 ft | 391 kts | 154° |
| 2026-05-04 19:00 | 52.79150 | -2.03293 | 19038 ft | 391 kts | 154° |
| 2026-05-04 19:00 | 52.76737 | -2.01223 | 19051 ft | 391 kts | 154° |
| 2026-05-04 19:00 | 52.74322 | -1.99153 | 19049 ft | 391 kts | 154° |
| 2026-05-04 19:01 | 52.71907 | -1.97086 | 19046 ft | 391 kts | 154° |
| 2026-05-04 19:01 | 52.69491 | -1.95021 | 19044 ft | 391 kts | 154° |
| 2026-05-04 19:01 | 52.67074 | -1.92958 | 19046 ft | 391 kts | 154° |
| 2026-05-04 19:01 | 52.64656 | -1.90896 | 19049 ft | 391 kts | 154° |
| 2026-05-04 19:02 | 52.62240 | -1.88839 | 19048 ft | 391 kts | 154° |
| 2026-05-04 19:02 | 52.59821 | -1.86782 | 19049 ft | 391 kts | 154° |
| 2026-05-04 19:02 | 52.57405 | -1.84729 | 19044 ft | 391 kts | 154° |
| 2026-05-04 19:02 | 52.54991 | -1.82681 | 19045 ft | 391 kts | 154° |
| 2026-05-04 19:03 | 52.52576 | -1.80634 | 19048 ft | 390 kts | 154° |
| 2026-05-04 19:03 | 52.50166 | -1.78595 | 19049 ft | 390 kts | 154° |
| 2026-05-04 19:03 | 52.47751 | -1.76553 | 19056 ft | 390 kts | 154° |
| 2026-05-04 19:03 | 52.45343 | -1.74519 | 19049 ft | 390 kts | 154° |
| 2026-05-04 19:04 | 52.42928 | -1.72483 | 18845 ft | 391 kts | 154° |
| 2026-05-04 19:04 | 52.40516 | -1.70450 | 18553 ft | 387 kts | 154° |
| 2026-05-04 19:04 | 52.38130 | -1.68443 | 18257 ft | 385 kts | 154° |
| 2026-05-04 19:04 | 52.35758 | -1.66414 | 17931 ft | 384 kts | 151° |
| 2026-05-04 19:05 | 52.33616 | -1.63799 | 17611 ft | 385 kts | 141° |
| 2026-05-04 19:05 | 52.31621 | -1.60895 | 17293 ft | 384 kts | 139° |
| 2026-05-04 19:05 | 52.29637 | -1.57972 | 16977 ft | 383 kts | 139° |
| 2026-05-04 19:05 | 52.27645 | -1.55080 | 16668 ft | 382 kts | 140° |
| 2026-05-04 19:06 | 52.25647 | -1.52231 | 16389 ft | 381 kts | 140° |
| 2026-05-04 19:06 | 52.23644 | -1.49411 | 16135 ft | 379 kts | 140° |
| 2026-05-04 19:06 | 52.21655 | -1.46621 | 15881 ft | 377 kts | 141° |
| 2026-05-04 19:06 | 52.19663 | -1.43835 | 15624 ft | 376 kts | 141° |
| 2026-05-04 19:07 | 52.17671 | -1.41053 | 15370 ft | 375 kts | 141° |
| 2026-05-04 19:07 | 52.15701 | -1.38306 | 15148 ft | 375 kts | 141° |
| 2026-05-04 19:07 | 52.13721 | -1.35545 | 15078 ft | 375 kts | 141° |
| 2026-05-04 19:07 | 52.11734 | -1.32780 | 15051 ft | 375 kts | 141° |
| 2026-05-04 19:08 | 52.09754 | -1.30024 | 15049 ft | 375 kts | 141° |
| 2026-05-04 19:08 | 52.07773 | -1.27270 | 15046 ft | 375 kts | 141° |
| 2026-05-04 19:08 | 52.05789 | -1.24516 | 15043 ft | 375 kts | 141° |
| 2026-05-04 19:08 | 52.03806 | -1.21765 | 15044 ft | 375 kts | 141° |
| 2026-05-04 19:09 | 52.01873 | -1.19087 | 15028 ft | 375 kts | 141° |
| 2026-05-04 19:09 | 51.99886 | -1.16337 | 15026 ft | 375 kts | 141° |
| 2026-05-04 19:09 | 51.97898 | -1.13591 | 15026 ft | 375 kts | 141° |
| 2026-05-04 19:09 | 51.95910 | -1.10848 | 15023 ft | 375 kts | 141° |
| 2026-05-04 19:10 | 51.93946 | -1.08141 | 15024 ft | 375 kts | 141° |
| 2026-05-04 19:10 | 51.91929 | -1.05363 | 15022 ft | 375 kts | 141° |
| 2026-05-04 19:10 | 51.89968 | -1.02664 | 15024 ft | 375 kts | 141° |
| 2026-05-04 19:10 | 51.87980 | -0.99932 | 15025 ft | 375 kts | 141° |
| 2026-05-04 19:11 | 51.85979 | -0.97145 | 15023 ft | 375 kts | 137° |
| 2026-05-04 19:11 | 51.84428 | -0.93763 | 15031 ft | 377 kts | 118° |
| 2026-05-04 19:11 | 51.84033 | -0.92500 | 15046 ft | 376 kts | 117° |
| 2026-05-04 19:11 | 51.82893 | -0.88695 | 15035 ft | 377 kts | 116° |
| 2026-05-04 19:12 | 51.81789 | -0.84952 | 15027 ft | 375 kts | 116° |
| 2026-05-04 19:12 | 51.79658 | -0.77840 | 15003 ft | 328 kts | 117° |
| 2026-05-04 19:12 | 51.78674 | -0.74614 | 15011 ft | 317 kts | 117° |
| 2026-05-04 19:13 | 51.77695 | -0.71427 | 15023 ft | 316 kts | 117° |
| 2026-05-04 19:13 | 51.76718 | -0.68252 | 15027 ft | 315 kts | 117° |
| 2026-05-04 19:13 | 51.75742 | -0.65091 | 15027 ft | 315 kts | 117° |
| 2026-05-04 19:13 | 51.74765 | -0.61931 | 15023 ft | 314 kts | 117° |
| 2026-05-04 19:14 | 51.73785 | -0.58778 | 15011 ft | 315 kts | 117° |
| 2026-05-04 19:14 | 51.72802 | -0.55618 | 14999 ft | 315 kts | 117° |
| 2026-05-04 19:14 | 51.71821 | -0.52463 | 14988 ft | 315 kts | 117° |
| 2026-05-04 19:14 | 51.70836 | -0.49319 | 14997 ft | 314 kts | 117° |